Time;durP1;ratioP1;P1;durP2;ratioP2;P2;SDS_P1;SDS_P2;PMS_P1;PMS_P2;Temp;Humidity;BMP_temperature;BMP_pressure;BME280_temperature;BME280_humidity;BME280_pressure;Samples;Min_cycle;Max_cycle;Signal;HPM_P1;HPM_P2
2022/06/09 00:01:18;;;;;;;9.52;2.53;;;16.70;99.90;;;;;;4896582;29;20101;-83
2022/06/09 00:04:05;;;;;;;14.95;2.13;;;16.70;99.90;;;;;;4897022;29;20028;-83
2022/06/09 00:06:40;;;;;;;11.38;2.17;;;16.60;99.90;;;;;;4896262;29;20478;-84
2022/06/09 00:09:07;;;;;;;9.48;1.77;;;16.60;99.90;;;;;;4897053;29;20028;-84
2022/06/09 00:11:36;;;;;;;10.30;2.05;;;16.50;99.90;;;;;;4896612;29;20043;-83
2022/06/09 00:14:04;;;;;;;10.02;1.80;;;16.50;99.90;;;;;;4896752;29;20043;-83
2022/06/09 00:16:30;;;;;;;8.82;2.25;;;16.40;99.90;;;;;;4896693;29;20457;-83
2022/06/09 00:18:56;;;;;;;16.70;2.03;;;16.40;99.90;;;;;;4896895;29;20107;-83
2022/06/09 00:21:23;;;;;;;12.23;2.75;;;16.30;99.90;;;;;;4896499;29;20389;-83
2022/06/09 00:23:49;;;;;;;8.70;1.90;;;16.30;99.90;;;;;;4896246;29;20043;-83
2022/06/09 00:26:15;;;;;;;11.38;2.38;;;16.30;99.90;;;;;;4895127;29;20489;-84
2022/06/09 00:28:40;;;;;;;12.60;2.35;;;16.30;99.90;;;;;;4896834;29;20120;-84
2022/06/09 00:31:06;;;;;;;11.20;2.00;;;16.30;99.90;;;;;;4895523;29;20031;-83
2022/06/09 00:33:32;;;;;;;11.75;2.58;;;16.20;99.90;;;;;;4897060;29;20533;-84
2022/06/09 00:35:57;;;;;;;12.40;2.22;;;16.10;99.90;;;;;;4896536;29;20556;-84
2022/06/09 00:38:24;;;;;;;11.02;2.20;;;16.10;99.90;;;;;;4896070;29;20044;-84
2022/06/09 00:40:49;;;;;;;15.45;2.45;;;16.20;99.90;;;;;;4896634;29;20068;-84
2022/06/09 00:43:15;;;;;;;15.25;2.00;;;16.10;99.90;;;;;;4896594;29;20411;-84
2022/06/09 00:46:01;;;;;;;16.30;2.95;;;16.10;99.90;;;;;;4896745;29;20024;-84
2022/06/09 00:49:06;;;;;;;10.05;2.10;;;16.00;99.90;;;;;;4886873;29;20041;-84
2022/06/09 00:51:43;;;;;;;17.70;2.85;;;16.10;99.90;;;;;;4888509;29;20044;-84
2022/06/09 00:54:18;;;;;;;11.57;2.03;;;16.00;99.90;;;;;;4896478;29;20033;-84
2022/06/09 00:56:57;;;;;;;16.35;2.25;;;16.00;99.90;;;;;;4895085;29;20029;-84
2022/06/09 00:59:26;;;;;;;14.35;1.98;;;16.00;99.90;;;;;;4896297;29;20029;-83
2022/06/09 01:01:57;;;;;;;14.02;2.28;;;15.90;99.90;;;;;;4879478;29;20100;-83
2022/06/09 01:04:24;;;;;;;12.43;2.17;;;15.90;99.90;;;;;;4899850;29;20377;-83
2022/06/09 01:07:02;;;;;;;13.25;2.33;;;15.90;99.90;;;;;;4900210;29;20160;-83
2022/06/09 01:09:29;;;;;;;12.73;2.45;;;15.80;99.90;;;;;;4899588;29;20029;-83
2022/06/09 01:11:56;;;;;;;19.63;2.42;;;15.90;99.90;;;;;;4899954;29;20024;-83
2022/06/09 01:14:32;;;;;;;10.40;2.50;;;15.90;99.90;;;;;;4900231;29;20473;-83
2022/06/09 01:17:07;;;;;;;8.25;2.45;;;15.90;99.90;;;;;;4899179;29;20033;-83
2022/06/09 01:19:47;;;;;;;14.77;2.25;;;15.80;99.90;;;;;;4899589;29;20029;-83
2022/06/09 01:22:44;;;;;;;16.10;3.13;;;15.80;99.90;;;;;;4899295;29;20044;-83
2022/06/09 01:25:27;;;;;;;20.92;2.50;;;15.80;99.90;;;;;;4898446;29;20033;-83
2022/06/09 01:28:06;;;;;;;16.48;3.03;;;15.70;99.90;;;;;;4899716;29;20035;-83
2022/06/09 01:30:51;;;;;;;19.67;3.72;;;15.70;99.90;;;;;;4899448;29;20473;-84
2022/06/09 01:33:23;;;;;;;16.60;2.83;;;15.70;99.90;;;;;;4898238;29;20072;-83
2022/06/09 01:36:16;;;;;;;12.27;2.50;;;15.60;99.90;;;;;;4899109;29;20477;-83
2022/06/09 01:38:52;;;;;;;12.70;2.70;;;15.60;99.90;;;;;;4891975;29;20059;-84
2022/06/09 01:41:19;;;;;;;16.67;2.95;;;15.60;99.90;;;;;;4899517;29;20446;-84
2022/06/09 01:43:47;;;;;;;11.98;2.75;;;15.50;99.90;;;;;;4898866;29;20021;-83
2022/06/09 01:46:28;;;;;;;16.23;2.58;;;15.50;99.90;;;;;;4880582;29;20112;-84
2022/06/09 01:48:57;;;;;;;14.65;2.38;;;15.50;99.90;;;;;;4880549;29;20033;-83
2022/06/09 01:51:26;;;;;;;17.30;2.60;;;15.50;99.90;;;;;;4880435;29;20071;-84
2022/06/09 01:53:57;;;;;;;15.30;3.05;;;15.50;99.90;;;;;;4897551;29;20388;-84
2022/06/09 01:56:43;;;;;;;15.00;2.88;;;15.50;99.90;;;;;;4898826;29;20123;-84
2022/06/09 01:59:22;;;;;;;16.70;3.80;;;15.50;99.90;;;;;;4899254;29;20076;-84
2022/06/09 02:01:57;;;;;;;12.30;2.45;;;15.50;99.90;;;;;;4897587;29;20031;-84
2022/06/09 02:04:27;;;;;;;15.40;2.67;;;15.50;99.90;;;;;;4898301;29;20061;-83
2022/06/09 02:06:54;;;;;;;18.85;3.30;;;15.50;99.90;;;;;;4898996;29;20045;-83
2022/06/09 02:09:25;;;;;;;18.55;3.63;;;15.60;99.90;;;;;;4898770;29;20546;-83
2022/06/09 02:11:54;;;;;;;12.93;2.83;;;15.60;99.90;;;;;;4899259;29;20024;-83
2022/06/09 02:14:23;;;;;;;15.63;2.80;;;15.60;99.90;;;;;;4897906;29;20025;-83
2022/06/09 02:16:48;;;;;;;13.57;2.80;;;15.60;99.90;;;;;;4898520;29;21672;-83
2022/06/09 02:19:14;;;;;;;14.30;2.58;;;15.50;99.90;;;;;;4899117;29;20032;-84
2022/06/09 02:21:41;;;;;;;16.95;3.10;;;15.50;99.90;;;;;;4898524;29;20040;-84
2022/06/09 02:24:07;;;;;;;19.85;3.70;;;15.50;99.90;;;;;;4898471;29;20044;-84
2022/06/09 02:26:33;;;;;;;19.25;3.17;;;15.50;99.90;;;;;;4898455;29;20032;-84
2022/06/09 02:28:58;;;;;;;20.58;3.47;;;15.40;99.90;;;;;;4898794;29;20072;-84
2022/06/09 02:31:25;;;;;;;21.80;4.03;;;15.40;99.90;;;;;;4898731;29;20029;-84
2022/06/09 02:33:51;;;;;;;19.63;2.85;;;15.40;99.90;;;;;;4898578;29;20068;-84
2022/06/09 02:36:18;;;;;;;21.75;2.70;;;15.40;99.90;;;;;;4898060;29;20036;-84
2022/06/09 02:38:44;;;;;;;17.50;2.88;;;15.40;99.90;;;;;;4898220;29;20507;-84
2022/06/09 02:41:10;;;;;;;15.88;3.75;;;15.40;99.90;;;;;;4898519;29;20021;-84
2022/06/09 02:43:36;;;;;;;21.77;3.85;;;15.30;99.90;;;;;;4898231;29;20083;-84
2022/06/09 02:46:03;;;;;;;12.32;2.53;;;15.40;99.90;;;;;;4896702;29;20119;-83
2022/06/09 02:48:30;;;;;;;23.73;3.47;;;15.40;99.90;;;;;;4897776;29;20500;-83
2022/06/09 02:50:56;;;;;;;14.90;2.85;;;15.40;99.90;;;;;;4897747;29;20085;-84
2022/06/09 02:53:23;;;;;;;12.57;3.00;;;15.40;99.90;;;;;;4898206;29;20036;-84
2022/06/09 02:55:49;;;;;;;18.90;3.08;;;15.40;99.90;;;;;;4898087;29;20020;-84
2022/06/09 02:58:15;;;;;;;20.52;3.10;;;15.30;99.90;;;;;;4896785;29;20040;-84
2022/06/09 03:00:42;;;;;;;16.92;3.25;;;15.30;99.90;;;;;;4897490;29;20123;-84
2022/06/09 03:03:12;;;;;;;16.33;2.95;;;15.30;99.90;;;;;;4897824;29;20029;-84
2022/06/09 03:05:38;;;;;;;21.20;3.38;;;15.30;99.90;;;;;;4897744;29;20055;-84
2022/06/09 03:08:06;;;;;;;17.65;3.55;;;15.30;99.90;;;;;;4897814;29;20060;-84
2022/06/09 03:10:32;;;;;;;27.73;4.20;;;15.20;99.90;;;;;;4897558;29;20025;-84
2022/06/09 03:12:58;;;;;;;14.65;3.08;;;15.30;99.90;;;;;;4898213;29;20059;-84
2022/06/09 03:15:24;;;;;;;20.52;3.75;;;15.20;99.90;;;;;;4897507;29;20527;-84
2022/06/09 03:17:51;;;;;;;14.20;2.72;;;15.20;99.90;;;;;;4897617;29;20041;-84
2022/06/09 03:20:21;;;;;;;15.38;3.20;;;15.20;99.90;;;;;;4897823;29;20024;-84
2022/06/09 03:22:47;;;;;;;21.08;3.95;;;15.20;99.90;;;;;;4897045;29;20063;-84
2022/06/09 03:25:13;;;;;;;16.50;2.78;;;15.20;99.90;;;;;;4897313;29;20025;-84
2022/06/09 03:27:39;;;;;;;14.27;3.22;;;15.20;99.90;;;;;;4897203;29;20040;-83
2022/06/09 03:30:06;;;;;;;20.38;3.50;;;15.20;99.90;;;;;;4897729;29;20039;-84
2022/06/09 03:32:32;;;;;;;19.52;3.80;;;15.20;99.90;;;;;;4897319;29;20063;-84
2022/06/09 03:34:58;;;;;;;16.00;2.92;;;15.20;99.90;;;;;;4895896;29;20412;-84
2022/06/09 03:37:24;;;;;;;17.55;2.70;;;15.30;99.90;;;;;;4897397;29;20035;-84
2022/06/09 03:39:50;;;;;;;18.73;2.83;;;15.20;99.90;;;;;;4897349;29;20035;-84
2022/06/09 03:42:16;;;;;;;24.55;3.42;;;15.20;99.90;;;;;;4896717;29;20389;-84
2022/06/09 03:44:41;;;;;;;17.80;3.40;;;15.10;99.90;;;;;;4897240;29;20021;-84
2022/06/09 03:47:08;;;;;;;10.30;2.45;;;15.10;99.90;;;;;;4897608;29;20029;-84
2022/06/09 03:49:34;;;;;;;20.42;3.72;;;15.10;99.90;;;;;;4896646;29;20381;-84
2022/06/09 03:52:00;;;;;;;18.20;3.20;;;15.00;99.90;;;;;;4897207;29;20039;-84
2022/06/09 03:54:25;;;;;;;19.35;3.03;;;15.00;99.90;;;;;;4897707;29;20096;-84
2022/06/09 03:56:51;;;;;;;23.05;3.13;;;15.00;99.90;;;;;;4895258;29;20044;-84
2022/06/09 03:59:17;;;;;;;14.15;2.80;;;15.00;99.90;;;;;;4896751;29;20029;-84
2022/06/09 04:01:43;;;;;;;20.50;3.92;;;15.00;99.90;;;;;;4895963;29;20104;-83
2022/06/09 04:04:09;;;;;;;21.55;3.58;;;14.90;99.90;;;;;;4896712;29;20025;-83
2022/06/09 04:06:35;;;;;;;21.25;3.45;;;14.90;99.90;;;;;;4897043;29;20179;-83
2022/06/09 04:09:02;;;;;;;22.83;4.95;;;14.90;99.90;;;;;;4896968;29;20041;-83
2022/06/09 04:11:27;;;;;;;21.15;3.67;;;14.90;99.90;;;;;;4897137;29;20441;-81
2022/06/09 04:13:53;;;;;;;19.67;3.40;;;14.80;99.90;;;;;;4897168;29;20056;-86
2022/06/09 04:16:21;;;;;;;11.73;2.58;;;14.80;99.90;;;;;;4896956;29;20032;-83
2022/06/09 04:18:47;;;;;;;23.55;3.40;;;14.80;99.90;;;;;;4896224;29;20079;-81
2022/06/09 04:21:13;;;;;;;15.43;3.58;;;14.80;99.90;;;;;;4896196;29;20032;-81
2022/06/09 04:23:38;;;;;;;17.90;3.35;;;14.80;99.90;;;;;;4895841;29;20037;-83
2022/06/09 04:26:04;;;;;;;16.10;3.22;;;14.80;99.90;;;;;;4897011;29;20548;-82
2022/06/09 04:28:30;;;;;;;19.65;3.47;;;14.70;99.90;;;;;;4896380;29;20441;-82
2022/06/09 04:30:55;;;;;;;19.60;2.88;;;14.70;99.90;;;;;;4897220;29;20059;-82
2022/06/09 04:33:21;;;;;;;23.63;3.45;;;14.80;99.90;;;;;;4896437;29;20036;-83
2022/06/09 04:35:47;;;;;;;13.27;2.67;;;14.70;99.90;;;;;;4895529;29;20037;-82
2022/06/09 04:38:12;;;;;;;19.50;3.45;;;14.70;99.90;;;;;;4897715;29;20131;-82
2022/06/09 04:40:41;;;;;;;18.92;3.60;;;14.80;99.90;;;;;;4899610;29;20037;-84
2022/06/09 04:43:09;;;;;;;21.17;4.00;;;14.70;99.90;;;;;;4900682;29;20028;-84
2022/06/09 04:45:36;;;;;;;27.73;4.03;;;14.80;99.90;;;;;;4900560;29;20021;-81
2022/06/09 04:48:02;;;;;;;21.27;3.42;;;14.70;99.90;;;;;;4899201;29;20056;-82
2022/06/09 04:50:28;;;;;;;23.95;3.90;;;14.70;99.90;;;;;;4898633;29;20071;-84
2022/06/09 04:52:54;;;;;;;23.23;3.55;;;14.70;99.90;;;;;;4899637;29;20033;-85
2022/06/09 04:55:20;;;;;;;19.33;3.35;;;14.70;99.90;;;;;;4899561;29;20028;-83
2022/06/09 04:57:46;;;;;;;21.83;3.58;;;14.70;99.90;;;;;;4899534;29;20037;-83
2022/06/09 05:00:14;;;;;;;19.45;3.65;;;14.80;99.90;;;;;;4899615;29;20036;-83
2022/06/09 05:02:39;;;;;;;18.48;3.47;;;14.80;99.90;;;;;;4884935;29;20108;-83
2022/06/09 05:05:07;;;;;;;20.50;3.88;;;14.70;99.90;;;;;;4900240;29;20100;-84
2022/06/09 05:07:32;;;;;;;11.93;3.13;;;14.70;99.90;;;;;;4897543;29;20032;-83
2022/06/09 05:09:58;;;;;;;17.13;2.88;;;14.80;99.90;;;;;;4899249;29;20088;-82
2022/06/09 05:12:24;;;;;;;16.63;2.92;;;14.80;99.90;;;;;;4899561;29;20036;-83
2022/06/09 05:14:52;;;;;;;29.25;3.88;;;14.80;99.90;;;;;;4899011;29;20029;-84
2022/06/09 05:17:19;;;;;;;34.53;3.55;;;14.80;99.90;;;;;;4904190;29;20016;-83
2022/06/09 16:10:49;;;;;;;9.50;1.30;;;23.60;71.00;;;;;;5483949;23;20080;-83
2022/06/09 16:13:16;;;;;;;5.07;1.10;;;23.40;70.70;;;;;;4892346;29;20405;-83
2022/06/09 16:15:43;;;;;;;4.70;1.10;;;23.20;70.90;;;;;;4887314;29;20032;-81
2022/06/09 16:18:10;;;;;;;4.03;1.10;;;23.30;71.30;;;;;;4896929;29;20484;-82
2022/06/09 16:20:38;;;;;;;5.32;1.30;;;23.30;70.80;;;;;;4892277;29;20029;-81
2022/06/09 16:23:04;;;;;;;5.60;1.35;;;23.30;71.60;;;;;;4897258;29;20032;-82
2022/06/09 16:25:31;;;;;;;4.25;1.05;;;23.40;71.60;;;;;;4895552;29;20033;-83
2022/06/09 16:27:59;;;;;;;5.28;1.50;;;23.30;71.80;;;;;;4887592;29;20594;-84
2022/06/09 16:30:25;;;;;;;7.20;1.20;;;23.20;72.00;;;;;;4893281;29;20039;-78
2022/06/09 16:32:51;;;;;;;6.95;1.50;;;23.20;72.40;;;;;;4884548;29;20469;-83
2022/06/09 16:35:17;;;;;;;7.38;1.33;;;23.20;72.40;;;;;;4889474;29;20059;-80
2022/06/09 16:37:43;;;;;;;6.70;1.42;;;23.10;72.20;;;;;;4889942;29;20037;-80
2022/06/09 16:40:14;;;;;;;5.60;1.35;;;23.10;72.70;;;;;;4897017;29;20357;-79
2022/06/09 16:42:39;;;;;;;10.68;1.50;;;23.10;72.70;;;;;;4892035;29;20496;-81
2022/06/09 16:45:06;;;;;;;7.15;1.38;;;23.20;72.70;;;;;;4890666;29;20134;-81
2022/06/09 16:47:31;;;;;;;7.75;1.40;;;23.20;73.00;;;;;;4899778;29;20389;-84
2022/06/09 16:50:00;;;;;;;9.93;1.85;;;23.00;73.30;;;;;;4899842;29;20033;-84
2022/06/09 16:52:26;;;;;;;8.10;1.40;;;23.00;73.80;;;;;;4901038;29;20052;-82
2022/06/09 16:54:52;;;;;;;10.50;1.77;;;22.90;74.10;;;;;;4888160;29;20084;-84
2022/06/09 16:57:18;;;;;;;6.07;1.15;;;22.90;73.70;;;;;;4881148;29;20056;-84
2022/06/09 16:59:44;;;;;;;9.35;1.58;;;22.90;73.30;;;;;;4883497;29;20060;-83
2022/06/09 17:02:10;;;;;;;6.65;1.40;;;22.90;73.30;;;;;;4895505;29;20089;-84
2022/06/09 17:04:35;;;;;;;11.55;1.73;;;22.80;73.50;;;;;;4900556;29;20037;-84
2022/06/09 17:07:01;;;;;;;12.50;2.08;;;22.80;73.50;;;;;;4898782;29;20024;-82
2022/06/09 17:09:29;;;;;;;4.13;1.48;;;22.80;74.00;;;;;;4893950;29;20047;-79
2022/06/09 17:11:55;;;;;;;5.35;1.63;;;22.80;74.30;;;;;;4876504;29;20544;-82
2022/06/09 17:14:21;;;;;;;3.35;0.90;;;22.90;74.00;;;;;;4895700;29;20021;-86
2022/06/09 17:16:47;;;;;;;7.47;1.70;;;23.00;74.10;;;;;;4882432;29;20088;-81
2022/06/09 17:19:13;;;;;;;6.07;1.45;;;22.90;74.10;;;;;;4889198;29;20040;-79
2022/06/09 17:21:43;;;;;;;10.70;1.27;;;22.70;74.40;;;;;;4869145;29;20036;-79
2022/06/09 17:24:10;;;;;;;6.50;1.73;;;22.90;75.20;;;;;;4891892;29;20036;-84
2022/06/09 17:26:37;;;;;;;8.55;1.33;;;22.90;75.20;;;;;;4884051;29;20430;-79
2022/06/09 17:29:04;;;;;;;9.57;1.65;;;22.90;75.60;;;;;;4883177;29;20116;-81
2022/06/09 17:31:29;;;;;;;6.55;1.20;;;22.90;75.60;;;;;;4889200;29;20029;-80
2022/06/09 17:33:55;;;;;;;7.07;1.13;;;22.80;75.10;;;;;;4881660;29;20029;-78
2022/06/09 17:36:22;;;;;;;8.77;1.35;;;22.70;75.10;;;;;;4882472;29;20430;-84
2022/06/09 17:38:49;;;;;;;8.93;1.98;;;22.60;75.60;;;;;;4881102;29;20025;-85
2022/06/09 17:41:15;;;;;;;7.15;1.92;;;22.70;75.80;;;;;;4887689;29;20025;-83
2022/06/09 17:43:41;;;;;;;3.58;1.30;;;22.70;75.00;;;;;;4885178;29;20084;-87
2022/06/09 17:46:07;;;;;;;5.72;1.27;;;22.60;75.10;;;;;;4887822;29;20013;-84
2022/06/09 17:48:33;;;;;;;9.88;1.67;;;22.50;75.50;;;;;;4888219;29;20044;-82
2022/06/09 17:51:00;;;;;;;5.53;1.48;;;22.50;75.90;;;;;;4883743;29;20025;-80
2022/06/09 17:53:26;;;;;;;8.05;1.63;;;22.40;76.20;;;;;;4891601;29;20366;-79
2022/06/09 17:55:52;;;;;;;8.60;2.15;;;22.40;75.80;;;;;;4894941;29;20035;-79
2022/06/09 17:58:18;;;;;;;7.57;1.67;;;22.40;76.30;;;;;;4881636;29;20040;-78
2022/06/09 18:00:50;;;;;;;10.43;1.98;;;22.30;76.30;;;;;;4880376;29;20029;-79
2022/06/09 18:03:16;;;;;;;;;;;22.30;76.80;;;;;;4883988;29;20084;-79
2022/06/09 18:05:44;;;;;;;8.38;1.33;;;22.30;76.70;;;;;;4885077;29;20279;-79
2022/06/09 18:08:14;;;;;;;9.70;3.08;;;22.30;77.20;;;;;;4883281;29;20037;-79
2022/06/09 18:10:44;;;;;;;8.43;1.58;;;22.20;77.30;;;;;;4878654;29;20059;-79
2022/06/09 18:13:11;;;;;;;5.15;1.60;;;22.20;77.30;;;;;;4882411;29;20017;-79
2022/06/09 18:15:39;;;;;;;6.47;1.80;;;22.10;78.00;;;;;;4879935;29;20104;-79
2022/06/09 18:18:07;;;;;;;9.88;2.13;;;22.20;77.80;;;;;;4878931;29;20093;-81
2022/06/09 18:20:34;;;;;;;6.93;1.52;;;22.20;77.70;;;;;;4878198;29;20055;-80
2022/06/09 18:23:06;;;;;;;6.00;1.80;;;22.10;77.80;;;;;;4886833;29;20045;-89
2022/06/09 18:25:33;;;;;;;12.75;2.47;;;22.10;77.80;;;;;;4893546;29;20033;-88
2022/06/09 18:27:58;;;;;;;6.78;1.70;;;22.00;78.00;;;;;;4880210;29;20033;-86
2022/06/09 18:30:24;;;;;;;8.32;1.70;;;21.90;78.20;;;;;;4883449;29;20038;-85
2022/06/09 18:32:50;;;;;;;9.52;1.48;;;21.90;78.90;;;;;;4881041;29;20557;-87
2022/06/09 18:35:17;;;;;;;10.52;2.05;;;21.80;78.80;;;;;;4887411;29;20036;-86
2022/06/09 18:37:43;;;;;;;8.43;1.40;;;21.80;79.00;;;;;;4884075;29;20040;-85
2022/06/09 18:40:14;;;;;;;7.53;1.58;;;21.80;79.30;;;;;;4887158;29;20494;-85
2022/06/09 18:42:44;;;;;;;8.05;1.88;;;21.70;79.50;;;;;;4876396;29;20100;-85
2022/06/09 18:45:13;;;;;;;5.75;1.30;;;21.70;79.80;;;;;;4887415;29;20021;-82
2022/06/09 18:47:39;;;;;;;6.63;0.90;;;21.70;80.00;;;;;;4881937;29;20032;-80
2022/06/09 18:50:08;;;;;;;6.25;1.75;;;21.70;80.20;;;;;;4886701;29;20509;-81
2022/06/09 18:52:33;;;;;;;5.18;1.30;;;21.70;80.30;;;;;;4890129;29;20039;-84
2022/06/09 18:54:59;;;;;;;6.50;1.23;;;21.60;80.80;;;;;;4888991;29;20115;-84
2022/06/09 18:57:27;;;;;;;7.75;1.40;;;21.60;80.40;;;;;;4879997;29;20029;-84
2022/06/09 18:59:53;;;;;;;6.30;1.55;;;21.50;80.70;;;;;;4887163;29;20081;-84
2022/06/09 19:02:19;;;;;;;7.70;1.88;;;21.50;81.10;;;;;;4884806;29;20084;-84
2022/06/09 19:04:46;;;;;;;5.55;1.40;;;21.50;81.10;;;;;;4889725;29;20031;-84
2022/06/09 19:07:12;;;;;;;6.95;1.85;;;21.40;81.50;;;;;;4883150;29;20033;-84
2022/06/09 19:09:39;;;;;;;8.80;1.90;;;21.40;82.10;;;;;;4873621;29;20396;-84
2022/06/09 19:12:08;;;;;;;5.97;1.55;;;21.40;82.60;;;;;;4877877;29;20049;-84
2022/06/09 19:14:35;;;;;;;6.32;1.15;;;21.30;82.20;;;;;;4874340;29;20136;-84
2022/06/09 19:17:02;;;;;;;6.05;1.40;;;21.20;82.70;;;;;;4888419;29;20035;-85
2022/06/09 19:19:28;;;;;;;6.80;1.75;;;21.20;82.80;;;;;;4835243;29;20053;-84
2022/06/09 19:21:54;;;;;;;7.13;1.73;;;21.10;83.20;;;;;;4840526;29;20033;-83
2022/06/09 19:24:19;;;;;;;6.63;1.60;;;21.10;83.60;;;;;;4846352;29;20036;-84
2022/06/09 19:26:45;;;;;;;6.10;1.58;;;21.10;84.00;;;;;;4830825;29;20054;-81
2022/06/09 19:29:11;;;;;;;4.07;1.15;;;21.10;84.00;;;;;;4840355;29;20030;-84
2022/06/09 19:31:37;;;;;;;6.88;1.77;;;21.00;84.40;;;;;;4840273;29;20547;-84
2022/06/09 19:34:03;;;;;;;6.75;1.40;;;21.00;84.30;;;;;;4839702;29;20034;-83
2022/06/09 19:36:31;;;;;;;7.50;1.50;;;21.00;84.80;;;;;;4841644;29;20021;-83
2022/06/09 19:38:57;;;;;;;5.57;1.35;;;20.90;84.70;;;;;;4831999;29;20030;-84
2022/06/09 19:41:23;;;;;;;6.97;1.55;;;20.90;85.00;;;;;;4849164;29;20025;-83
2022/06/09 19:43:54;;;;;;;10.13;1.83;;;20.90;85.10;;;;;;4860178;29;20029;-83
2022/06/09 19:46:28;;;;;;;8.80;1.92;;;20.90;85.20;;;;;;4860092;29;20022;-83
2022/06/09 19:48:57;;;;;;;9.50;1.98;;;20.80;85.40;;;;;;4860315;29;20117;-83
2022/06/09 19:51:23;;;;;;;4.85;1.63;;;20.80;85.70;;;;;;4859897;29;20038;-83
2022/06/09 19:53:49;;;;;;;8.13;1.88;;;20.70;85.80;;;;;;4860055;29;20036;-83
2022/06/09 19:56:18;;;;;;;3.08;1.10;;;20.70;86.30;;;;;;4848014;29;20494;-83
2022/06/09 19:58:45;;;;;;;5.45;1.30;;;20.60;86.60;;;;;;4841462;29;20029;-83
2022/06/09 20:01:12;;;;;;;6.72;1.75;;;20.60;87.20;;;;;;4841084;29;20033;-83
2022/06/09 20:03:38;;;;;;;7.28;1.40;;;20.50;87.50;;;;;;4840668;29;20026;-80
2022/06/09 20:06:06;;;;;;;4.93;1.40;;;20.50;87.90;;;;;;4841520;29;20036;-83
2022/06/09 20:08:33;;;;;;;4.53;1.40;;;20.40;88.20;;;;;;4840391;29;20037;-83
2022/06/09 20:10:59;;;;;;;8.35;1.90;;;20.40;88.70;;;;;;4841202;29;20085;-83
2022/06/09 20:13:26;;;;;;;9.93;1.80;;;20.40;89.20;;;;;;4841320;29;20439;-83
2022/06/09 20:15:52;;;;;;;5.78;1.48;;;20.40;89.90;;;;;;4841024;29;20032;-83
2022/06/09 20:18:21;;;;;;;7.85;1.42;;;20.30;89.90;;;;;;4841418;29;20034;-83
2022/06/09 20:20:53;;;;;;;6.75;1.98;;;20.30;90.10;;;;;;4835902;29;20041;-83
2022/06/09 20:23:19;;;;;;;9.52;1.48;;;20.20;90.20;;;;;;4844974;29;20393;-83
2022/06/09 20:25:52;;;;;;;10.88;1.60;;;20.20;90.40;;;;;;4858022;29;20028;-83
2022/06/09 20:28:30;;;;;;;5.78;1.70;;;20.20;90.60;;;;;;4859351;29;20112;-83
2022/06/09 20:30:57;;;;;;;9.38;1.88;;;20.20;90.80;;;;;;4859908;29;20475;-83
2022/06/09 20:33:24;;;;;;;6.78;1.92;;;20.10;90.90;;;;;;4859574;29;20120;-83
2022/06/09 20:35:50;;;;;;;7.63;2.03;;;20.10;91.00;;;;;;4859273;29;20058;-83
2022/06/09 20:38:25;;;;;;;9.15;2.50;;;20.00;91.20;;;;;;4846352;29;20035;-83
2022/06/09 20:40:52;;;;;;;9.82;2.47;;;20.00;91.30;;;;;;4832180;29;20031;-83
2022/06/09 20:43:18;;;;;;;8.30;2.17;;;20.00;91.50;;;;;;4840877;29;20030;-83
2022/06/09 20:45:47;;;;;;;8.15;2.17;;;20.00;91.60;;;;;;4840799;29;20030;-83
2022/06/09 20:48:17;;;;;;;10.07;2.67;;;19.90;91.70;;;;;;4841008;29;20026;-83
2022/06/09 20:50:44;;;;;;;6.57;2.00;;;19.90;92.00;;;;;;4840349;29;20030;-83
2022/06/09 20:53:13;;;;;;;5.78;1.65;;;19.90;92.30;;;;;;4841038;29;20128;-83
2022/06/09 20:55:39;;;;;;;12.15;2.47;;;19.80;92.80;;;;;;4860850;29;20094;-83
2022/06/09 20:58:06;;;;;;;5.00;1.80;;;19.80;93.10;;;;;;4845198;29;20033;-83
2022/06/09 21:00:31;;;;;;;9.00;2.08;;;19.70;93.10;;;;;;4850842;29;20037;-83
2022/06/09 21:02:57;;;;;;;6.57;2.05;;;19.60;93.60;;;;;;4840931;29;20034;-83
2022/06/09 21:05:23;;;;;;;10.13;1.85;;;19.50;94.20;;;;;;4840893;29;20030;-83
2022/06/09 21:07:49;;;;;;;8.85;2.53;;;19.40;94.10;;;;;;4840569;29;20056;-83
2022/06/09 21:18:31;;;;;;;5.97;1.95;;;19.30;94.90;;;;;;4840601;29;20430;-83
2022/06/09 21:20:57;;;;;;;7.50;1.90;;;19.30;95.30;;;;;;4843159;29;20033;-83
2022/06/09 21:23:23;;;;;;;8.02;1.85;;;19.30;95.40;;;;;;4843919;29;20487;-83
2022/06/09 21:25:49;;;;;;;7.95;1.70;;;19.30;95.40;;;;;;4843755;29;20037;-83
2022/06/09 21:28:14;;;;;;;7.75;1.65;;;19.30;95.60;;;;;;4843013;29;20066;-83
2022/06/09 21:30:40;;;;;;;6.00;1.70;;;19.30;95.70;;;;;;4844692;29;20037;-83
2022/06/09 21:33:06;;;;;;;5.32;1.80;;;19.20;96.00;;;;;;4843211;29;20406;-83
2022/06/09 21:35:32;;;;;;;10.80;2.22;;;19.20;95.90;;;;;;4856702;29;20025;-83
2022/06/09 21:37:57;;;;;;;15.35;2.28;;;19.00;96.30;;;;;;4845071;29;20033;-83
2022/06/09 21:40:23;;;;;;;7.25;2.03;;;18.90;96.80;;;;;;4847731;29;20030;-82
2022/06/09 21:42:49;;;;;;;7.35;1.92;;;18.90;97.20;;;;;;4843703;29;20034;-83
2022/06/09 21:45:16;;;;;;;7.40;1.98;;;18.90;97.10;;;;;;4843234;29;20506;-83
2022/06/09 21:47:42;;;;;;;9.85;1.80;;;18.80;97.10;;;;;;4843696;29;20030;-83
2022/06/09 21:50:11;;;;;;;7.45;1.85;;;18.90;97.30;;;;;;4843690;29;20082;-83
2022/06/09 21:52:37;;;;;;;8.88;1.70;;;19.00;97.30;;;;;;4843735;29;20029;-83
2022/06/09 21:55:04;;;;;;;8.20;1.80;;;18.90;97.50;;;;;;4843855;29;20057;-83
2022/06/09 21:57:32;;;;;;;7.43;2.83;;;18.90;97.90;;;;;;4843115;29;20066;-83
2022/06/09 21:59:58;;;;;;;6.20;2.00;;;19.00;98.00;;;;;;4842482;29;20021;-83
2022/06/09 22:02:24;;;;;;;11.13;1.58;;;19.00;98.20;;;;;;4842333;29;20483;-83
2022/06/09 22:04:50;;;;;;;9.05;2.03;;;19.00;98.40;;;;;;4843428;29;20105;-83
2022/06/09 22:07:16;;;;;;;7.60;2.00;;;18.90;98.20;;;;;;4843436;29;20053;-83
2022/06/09 22:09:42;;;;;;;7.00;1.60;;;18.90;98.40;;;;;;4843286;29;20384;-83
2022/06/09 22:12:09;;;;;;;9.43;1.90;;;18.80;98.40;;;;;;4842402;29;20542;-83
2022/06/09 22:14:36;;;;;;;4.82;1.73;;;18.80;98.20;;;;;;4843424;29;20440;-83
2022/06/09 22:17:01;;;;;;;6.20;1.90;;;18.80;98.50;;;;;;4843242;29;20026;-83
2022/06/09 22:19:28;;;;;;;7.25;1.65;;;18.70;98.70;;;;;;4857200;29;20101;-83
2022/06/09 22:21:53;;;;;;;11.52;2.10;;;18.80;98.50;;;;;;4857165;29;20581;-83
2022/06/09 22:24:19;;;;;;;11.50;2.25;;;18.80;98.80;;;;;;4841965;29;20033;-83
2022/06/09 22:26:45;;;;;;;6.20;1.90;;;18.70;98.70;;;;;;4854872;29;20045;-83
2022/06/09 22:29:10;;;;;;;6.55;1.90;;;18.80;98.90;;;;;;4842915;29;20026;-83
2022/06/09 22:31:36;;;;;;;9.35;2.50;;;18.80;98.90;;;;;;4831796;29;20042;-83
2022/06/09 22:34:02;;;;;;;5.95;1.50;;;18.80;99.00;;;;;;4827072;29;20034;-83
2022/06/09 22:36:27;;;;;;;11.27;1.95;;;18.80;99.00;;;;;;4843364;29;20456;-83
2022/06/09 22:38:53;;;;;;;7.28;1.58;;;18.80;99.10;;;;;;4841200;29;20044;-83
2022/06/09 22:41:19;;;;;;;8.25;1.70;;;18.60;99.00;;;;;;4859212;29;20061;-83
2022/06/09 22:43:44;;;;;;;7.47;1.98;;;18.60;99.20;;;;;;4861330;29;20026;-83
2022/06/09 22:46:10;;;;;;;5.97;1.75;;;18.60;99.20;;;;;;4861069;29;20037;-83
2022/06/09 22:48:36;;;;;;;6.75;1.63;;;18.60;99.10;;;;;;4861151;29;20474;-83
2022/06/09 22:51:02;;;;;;;8.57;2.15;;;18.50;99.40;;;;;;4861356;29;20029;-83
2022/06/09 22:53:27;;;;;;;5.10;1.60;;;18.50;99.70;;;;;;4860700;29;20040;-83
2022/06/09 22:56:11;;;;;;;5.80;1.85;;;18.50;99.60;;;;;;4843311;29;20067;-83
2022/06/09 22:58:43;;;;;;;7.05;1.90;;;18.40;99.50;;;;;;4841103;29;20030;-83
2022/06/09 23:01:11;;;;;;;6.82;2.60;;;18.40;99.90;;;;;;4829424;29;20033;-83
2022/06/09 23:03:38;;;;;;;9.23;1.90;;;18.40;99.90;;;;;;4824310;29;20091;-83
2022/06/09 23:06:05;;;;;;;8.85;1.85;;;18.50;99.90;;;;;;4824161;29;20030;-83
2022/06/09 23:08:31;;;;;;;6.90;1.45;;;18.60;99.90;;;;;;4824349;29;20023;-83
2022/06/09 23:10:57;;;;;;;6.72;1.65;;;18.50;99.70;;;;;;4823880;29;20564;-83
2022/06/09 23:13:23;;;;;;;10.35;2.13;;;18.50;99.90;;;;;;4823835;29;20053;-83
2022/06/09 23:15:49;;;;;;;11.57;2.17;;;18.50;99.90;;;;;;4823880;29;20035;-83
2022/06/09 23:18:18;;;;;;;10.13;2.00;;;18.50;99.90;;;;;;4823988;29;20027;-83
2022/06/09 23:20:45;;;;;;;4.72;1.42;;;18.50;99.90;;;;;;4826281;29;20124;-83
2022/06/09 23:23:12;;;;;;;5.05;1.70;;;18.40;99.90;;;;;;4851188;29;20033;-83
2022/06/09 23:25:39;;;;;;;12.45;1.98;;;18.40;99.90;;;;;;4860809;29;20036;-83
2022/06/09 23:28:05;;;;;;;4.70;1.50;;;18.40;99.90;;;;;;4859835;29;20029;-83
2022/06/09 23:30:32;;;;;;;5.45;1.50;;;18.30;99.90;;;;;;4860620;29;20041;-83
2022/06/09 23:32:57;;;;;;;4.40;1.40;;;18.30;99.90;;;;;;4860177;29;20505;-83
2022/06/09 23:35:24;;;;;;;9.85;2.10;;;18.30;99.90;;;;;;4855725;29;20057;-83
2022/06/09 23:37:52;;;;;;;8.80;1.70;;;18.30;99.90;;;;;;4841916;29;20135;-83
2022/06/09 23:40:37;;;;;;;4.38;1.50;;;18.20;99.90;;;;;;4840477;29;20045;-83
2022/06/09 23:43:06;;;;;;;6.55;1.70;;;18.20;99.90;;;;;;4841366;29;20107;-83
2022/06/09 23:45:35;;;;;;;6.90;1.77;;;18.20;99.90;;;;;;4841496;29;20037;-83